Time;durP1;ratioP1;P1;durP2;ratioP2;P2;SDS_P1;SDS_P2;PMS_P1;PMS_P2;Temp;Humidity;BMP_temperature;BMP_pressure;BME280_temperature;BME280_humidity;BME280_pressure;Samples;Min_cycle;Max_cycle;Signal;HPM_P1;HPM_P2
2023/08/24 03:59:34;;;;;;;10.40;6.97;;;;;;;21.63;100.00;100473.50;5801104;27;20487;-85
2023/08/24 04:02:39;;;;;;;9.48;7.10;;;;;;;21.72;100.00;100477.47;5382825;33;34267;-85
2023/08/24 04:05:42;;;;;;;8.73;7.07;;;;;;;21.63;100.00;100477.06;5383007;33;34287;-85
2023/08/24 04:08:45;;;;;;;10.98;6.50;;;;;;;21.59;100.00;100477.81;5382985;33;33518;-84
2023/08/24 04:11:48;;;;;;;8.73;6.78;;;;;;;21.62;100.00;100478.16;5383094;33;33177;-85
2023/08/24 04:14:52;;;;;;;9.77;6.68;;;;;;;21.57;100.00;100480.81;5396206;33;33213;-85
2023/08/24 04:17:56;;;;;;;10.43;7.05;;;;;;;21.56;100.00;100478.28;5383653;33;34390;-85
2023/08/24 04:20:59;;;;;;;10.20;7.72;;;;;;;21.49;100.00;100481.19;5387348;33;33549;-85
2023/08/24 04:24:02;;;;;;;10.15;7.30;;;;;;;21.45;100.00;100480.87;5403186;33;33893;-85
2023/08/24 04:27:06;;;;;;;11.18;6.70;;;;;;;21.44;100.00;100487.44;5404985;33;34027;-85
2023/08/24 04:30:11;;;;;;;11.05;7.40;;;;;;;21.41;100.00;100482.47;5385415;33;33421;-85
2023/08/24 04:33:14;;;;;;;10.77;7.03;;;;;;;21.44;100.00;100483.84;5396672;33;34196;-85
2023/08/24 04:36:18;;;;;;;9.82;7.18;;;;;;;21.42;100.00;100492.31;5395569;33;33750;-85
2023/08/24 04:39:20;;;;;;;11.93;7.25;;;;;;;21.54;100.00;100486.78;5372653;33;33295;-85
2023/08/24 04:42:23;;;;;;;11.18;7.72;;;;;;;21.62;100.00;100491.03;5382381;33;33045;-85
2023/08/24 04:45:25;;;;;;;11.70;7.05;;;;;;;21.78;100.00;100492.09;5382011;33;33839;-85
2023/08/24 04:48:34;;;;;;;10.02;6.97;;;;;;;21.80;100.00;100484.47;5394256;33;33328;-85
2023/08/24 04:51:36;;;;;;;10.32;6.82;;;;;;;21.85;100.00;100490.00;5382664;33;34741;-85
2023/08/24 04:54:40;;;;;;;8.65;6.43;;;;;;;21.92;100.00;100490.69;5394230;33;33510;-85
2023/08/24 04:57:42;;;;;;;11.38;6.90;;;;;;;21.98;100.00;100497.91;5394881;33;35159;-85
2023/08/24 05:00:46;;;;;;;9.73;6.60;;;;;;;22.00;100.00;100503.97;5395493;33;33959;-85
2023/08/24 05:03:48;;;;;;;9.00;6.43;;;;;;;22.10;100.00;100504.13;5382444;33;34443;-85
2023/08/24 05:06:51;;;;;;;11.10;6.57;;;;;;;22.20;100.00;100511.72;5398505;33;33782;-85
2023/08/24 05:09:54;;;;;;;8.93;6.50;;;;;;;22.23;100.00;100513.97;5398721;33;34073;-85
2023/08/24 05:12:57;;;;;;;9.73;7.00;;;;;;;22.36;100.00;100512.75;5400730;33;33915;-85
2023/08/24 05:16:00;;;;;;;12.37;6.65;;;;;;;22.35;100.00;100513.84;5398786;33;34041;-85
2023/08/24 05:19:03;;;;;;;8.82;6.35;;;;;;;22.44;100.00;100517.00;5373727;33;33366;-85
2023/08/24 05:22:05;;;;;;;10.45;6.37;;;;;;;22.51;100.00;100510.22;5374195;33;33984;-85
2023/08/24 05:25:09;;;;;;;9.27;6.40;;;;;;;22.67;100.00;100514.00;5373936;33;33704;-85
2023/08/24 05:28:11;;;;;;;12.02;6.65;;;;;;;22.66;100.00;100514.25;5386107;33;33861;-85
2023/08/24 05:31:14;;;;;;;11.20;7.05;;;;;;;22.76;100.00;100517.97;5399293;33;34032;-85
2023/08/24 05:34:17;;;;;;;7.82;6.03;;;;;;;22.89;100.00;100515.91;5398381;33;34722;-85
2023/08/24 05:37:20;;;;;;;9.77;6.43;;;;;;;22.96;100.00;100517.44;5377361;33;33584;-85
2023/08/24 05:40:23;;;;;;;10.45;6.20;;;;;;;23.15;100.00;100514.34;5399785;33;35008;-85
2023/08/24 05:43:26;;;;;;;7.90;6.25;;;;;;;23.25;100.00;100519.91;5374803;33;35847;-85
2023/08/24 05:46:29;;;;;;;8.25;6.20;;;;;;;23.38;100.00;100522.28;5366410;33;33331;-85
2023/08/24 05:49:32;;;;;;;8.95;6.85;;;;;;;23.60;100.00;100524.94;5365824;33;34162;-85
2023/08/24 05:52:35;;;;;;;10.75;6.53;;;;;;;23.69;100.00;100517.91;5366060;33;33735;-85
2023/08/24 05:55:38;;;;;;;10.73;6.80;;;;;;;23.82;100.00;100519.41;5353934;33;33706;-89
2023/08/24 05:58:41;;;;;;;11.52;6.85;;;;;;;23.93;100.00;100528.56;5374537;32;33489;-89
2023/08/24 06:01:44;;;;;;;12.27;6.93;;;;;;;23.93;100.00;100526.66;5384481;33;33833;-90
2023/08/24 06:04:47;;;;;;;8.93;6.25;;;;;;;24.05;100.00;100525.66;5398282;33;33237;-86
2023/08/24 06:07:50;;;;;;;9.18;6.82;;;;;;;24.11;100.00;100516.34;5372383;33;33335;-86
2023/08/24 06:10:53;;;;;;;9.35;6.43;;;;;;;24.17;100.00;100520.78;5397029;33;34298;-85
2023/08/24 06:13:56;;;;;;;9.63;6.65;;;;;;;24.16;100.00;100521.84;5397630;33;33233;-85
2023/08/24 06:16:59;;;;;;;8.55;6.03;;;;;;;24.35;100.00;100525.00;5371051;33;33534;-85
2023/08/24 06:20:05;;;;;;;9.27;6.20;;;;;;;24.45;100.00;100519.59;5384060;33;33668;-85
2023/08/24 06:23:08;;;;;;;8.70;6.70;;;;;;;24.57;100.00;100516.62;5395407;33;33641;-85
2023/08/24 06:26:11;;;;;;;11.10;7.03;;;;;;;24.73;100.00;100518.37;5374901;33;33522;-85
2023/08/24 06:29:14;;;;;;;12.90;6.57;;;;;;;24.83;100.00;100521.19;5374570;33;34421;-85
2023/08/24 06:32:17;;;;;;;12.35;7.30;;;;;;;25.02;100.00;100520.69;5385080;33;33719;-84
2023/08/24 06:35:20;;;;;;;9.82;6.62;;;;;;;25.05;100.00;100523.72;5386784;33;33311;-85
2023/08/24 06:38:23;;;;;;;10.68;6.90;;;;;;;25.15;100.00;100520.19;5385925;33;33063;-85
2023/08/24 06:41:26;;;;;;;10.98;7.22;;;;;;;25.29;100.00;100521.31;5385153;33;33299;-85
2023/08/24 06:44:29;;;;;;;9.18;6.90;;;;;;;25.42;100.00;100519.13;5384144;33;33626;-85
2023/08/24 06:47:31;;;;;;;10.02;6.65;;;;;;;25.45;100.00;100522.19;5371833;33;33703;-85
2023/08/24 06:50:36;;;;;;;12.85;7.00;;;;;;;25.55;100.00;100518.63;5383934;33;33984;-85
2023/08/24 06:53:39;;;;;;;8.13;6.10;;;;;;;25.72;100.00;100519.19;5384135;33;33528;-85
2023/08/24 06:56:43;;;;;;;9.45;6.07;;;;;;;26.00;100.00;100519.75;5383085;33;33600;-84
2023/08/24 06:59:46;;;;;;;10.45;6.05;;;;;;;26.23;100.00;100521.09;5383905;33;33526;-84
2023/08/24 07:02:49;;;;;;;9.65;6.28;;;;;;;26.53;100.00;100522.16;5371388;33;33265;-84
2023/08/24 07:05:52;;;;;;;11.15;5.97;;;;;;;26.51;100.00;100524.41;5378772;33;33069;-84
2023/08/24 07:08:55;;;;;;;8.00;5.97;;;;;;;26.61;100.00;100516.06;5377490;33;34382;-84
2023/08/24 07:11:58;;;;;;;11.18;5.93;;;;;;;26.53;100.00;100525.78;5365445;33;33252;-84
2023/08/24 07:15:01;;;;;;;9.48;5.80;;;;;;;26.64;100.00;100518.28;5365364;33;33445;-84
2023/08/24 07:18:05;;;;;;;7.78;5.97;;;;;;;26.80;100.00;100514.34;5365411;33;34354;-84
2023/08/24 07:21:08;;;;;;;8.93;6.12;;;;;;;26.92;100.00;100516.78;5365561;33;34628;-84
2023/08/24 07:24:11;;;;;;;8.80;6.15;;;;;;;27.01;100.00;100517.03;5380031;33;33467;-84
2023/08/24 07:27:13;;;;;;;7.75;5.95;;;;;;;27.25;100.00;100518.00;5380632;33;33184;-81
2023/08/24 07:30:17;;;;;;;7.37;5.45;;;;;;;27.41;97.51;100510.47;5370638;33;33320;-82
2023/08/24 07:33:34;;;;;;;10.38;6.40;;;;;;;27.48;96.74;100521.19;5374305;33;34311;-82
2023/08/24 07:36:37;;;;;;;11.40;6.12;;;;;;;27.52;95.33;100513.97;5371638;33;33539;-82
2023/08/24 07:39:40;;;;;;;7.40;5.78;;;;;;;27.56;94.56;100517.81;5383157;33;34098;-82
2023/08/24 07:42:54;;;;;;;9.27;5.90;;;;;;;27.62;93.64;100516.66;5371218;33;33780;-82
2023/08/24 07:45:57;;;;;;;8.60;5.80;;;;;;;27.70;93.88;100515.19;5396680;33;33220;-82
2023/08/24 07:49:00;;;;;;;11.75;5.93;;;;;;;27.89;93.03;100515.37;5370884;33;34222;-82
2023/08/24 07:52:03;;;;;;;9.18;6.00;;;;;;;28.08;92.79;100512.69;5383285;33;33137;-83
2023/08/24 07:55:07;;;;;;;8.80;5.80;;;;;;;28.17;93.84;100508.16;5396055;33;33667;-82
2023/08/24 07:58:09;;;;;;;9.38;5.75;;;;;;;28.32;90.96;100512.75;5411709;33;35027;-84
2023/08/24 08:01:12;;;;;;;9.45;5.50;;;;;;;28.34;91.12;100516.84;5387141;33;33633;-86
2023/08/24 08:04:15;;;;;;;8.80;5.60;;;;;;;28.16;88.05;100521.19;5364721;33;33202;-86
2023/08/24 08:07:18;;;;;;;8.55;5.37;;;;;;;28.47;84.50;100521.72;5337679;33;34025;-86
2023/08/24 08:10:22;;;;;;;9.20;4.80;;;;;;;28.56;82.47;100519.16;5334751;33;33579;-82
2023/08/24 08:13:24;;;;;;;10.88;4.93;;;;;;;28.56;80.24;100516.38;5370381;33;33235;-85
2023/08/24 08:16:27;;;;;;;8.60;4.28;;;;;;;28.64;73.23;100529.59;5378609;33;33153;-82
2023/08/24 08:19:30;;;;;;;9.25;5.18;;;;;;;28.62;72.65;100520.72;5365408;33;34296;-83
2023/08/24 08:22:38;;;;;;;5.65;4.70;;;;;;;28.92;72.55;100524.25;5353435;33;33784;-83
2023/08/24 08:25:42;;;;;;;8.63;4.80;;;;;;;28.99;72.43;100527.50;5378255;33;33631;-82
2023/08/24 08:28:45;;;;;;;6.07;4.28;;;;;;;29.09;69.81;100523.78;5366009;33;34308;-82
2023/08/24 08:31:48;;;;;;;5.82;4.60;;;;;;;29.04;65.83;100526.62;5375501;33;33558;-84
2023/08/24 08:34:51;;;;;;;7.45;4.57;;;;;;;29.15;67.27;100534.50;5364073;33;33515;-84
2023/08/24 08:37:54;;;;;;;5.30;4.10;;;;;;;29.43;65.92;100529.13;5364934;33;34326;-84
2023/08/24 08:41:04;;;;;;;6.32;4.15;;;;;;;29.43;67.38;100523.56;5369127;33;33569;-84
2023/08/24 08:44:11;;;;;;;6.37;4.50;;;;;;;29.48;67.64;100526.25;5392670;33;33902;-84
2023/08/24 08:47:14;;;;;;;7.12;4.70;;;;;;;29.52;65.34;100523.72;5386485;33;33557;-83
2023/08/24 08:50:17;;;;;;;6.22;4.53;;;;;;;29.55;63.35;100528.66;5354661;33;33267;-84
2023/08/24 08:53:21;;;;;;;5.25;4.40;;;;;;;29.54;62.16;100521.44;5379940;33;33551;-83
2023/08/24 08:56:24;;;;;;;7.75;4.12;;;;;;;29.42;62.60;100521.09;5365698;33;34277;-84
2023/08/24 08:59:31;;;;;;;4.97;4.05;;;;;;;29.57;60.72;100518.06;5386136;32;35068;-84
2023/08/24 09:02:34;;;;;;;5.87;4.55;;;;;;;29.96;63.61;100516.91;5385095;33;34237;-84
2023/08/24 09:05:37;;;;;;;7.00;4.43;;;;;;;29.78;62.94;100505.56;5370915;33;33956;-84
2023/08/24 09:08:40;;;;;;;5.25;4.53;;;;;;;29.67;61.86;100504.06;5383792;33;33378;-84
2023/08/24 09:11:47;;;;;;;6.47;4.30;;;;;;;29.69;64.31;100503.75;5382410;33;33678;-84
2023/08/24 09:14:49;;;;;;;7.60;4.68;;;;;;;29.75;63.11;100505.34;5399247;32;33641;-84
2023/08/24 09:17:54;;;;;;;7.20;4.60;;;;;;;29.98;61.18;100497.97;5381252;33;33642;-84
2023/08/24 09:20:57;;;;;;;5.55;4.05;;;;;;;29.84;62.15;100500.75;5395928;33;33394;-84
2023/08/24 09:24:00;;;;;;;8.60;4.50;;;;;;;29.92;61.93;100500.03;5394380;33;33373;-84
2023/08/24 09:27:16;;;;;;;5.45;4.20;;;;;;;30.17;61.88;100497.94;5383881;33;34062;-82
2023/08/24 09:30:19;;;;;;;7.28;4.55;;;;;;;30.47;63.61;100493.75;5372784;33;33602;-83
2023/08/24 09:33:25;;;;;;;5.65;4.50;;;;;;;30.61;60.33;100488.22;5379132;33;33456;-82
2023/08/24 09:36:31;;;;;;;5.60;4.30;;;;;;;30.74;60.88;100487.34;5375120;33;33079;-82
2023/08/24 09:39:34;;;;;;;5.68;4.80;;;;;;;30.82;58.36;100485.84;5376782;33;33675;-82
2023/08/24 09:42:42;;;;;;;4.53;3.85;;;;;;;30.77;60.04;100485.91;5364537;33;32560;-82
2023/08/24 09:45:55;;;;;;;6.65;4.18;;;;;;;31.02;56.31;100476.25;5387386;33;33712;-86
2023/08/24 09:49:00;;;;;;;6.28;4.07;;;;;;;31.10;58.74;100472.72;5375704;33;33283;-83
2023/08/24 09:52:06;;;;;;;6.45;4.10;;;;;;;31.19;56.92;100470.84;5362950;33;33585;-83
2023/08/24 09:55:11;;;;;;;4.37;3.60;;;;;;;31.26;52.89;100473.19;5388339;33;33703;-83
2023/08/24 09:58:15;;;;;;;4.50;3.45;;;;;;;31.28;50.63;100471.72;5380682;32;33957;-83
2023/08/24 10:01:20;;;;;;;4.78;3.62;;;;;;;31.37;50.30;100475.44;5374801;33;34620;-83
2023/08/24 10:04:25;;;;;;;6.62;3.85;;;;;;;31.68;52.44;100466.34;5395313;32;34328;-83
2023/08/24 10:07:27;;;;;;;7.50;3.85;;;;;;;31.78;50.87;100474.41;5383899;33;33299;-83
2023/08/24 10:10:32;;;;;;;6.70;4.15;;;;;;;32.02;51.64;100478.84;5382991;33;34229;-83
2023/08/24 10:14:00;;;;;;;6.03;3.97;;;;;;;32.32;54.36;100474.37;5382427;32;33597;-83
2023/08/24 10:17:04;;;;;;;7.97;3.95;;;;;;;32.11;50.33;100482.47;5398026;33;33786;-84
2023/08/24 10:20:09;;;;;;;5.37;4.43;;;;;;;32.16;50.66;100468.41;5395920;32;33526;-84
2023/08/24 10:23:15;;;;;;;4.75;3.55;;;;;;;32.40;50.40;100467.19;5382145;32;33968;-83
2023/08/24 10:26:19;;;;;;;5.47;3.62;;;;;;;32.81;52.88;100471.59;5396286;33;33623;-84
2023/08/24 10:29:23;;;;;;;3.62;3.33;;;;;;;32.91;48.06;100463.75;5397024;32;34272;-84
2023/08/24 10:32:27;;;;;;;4.07;3.60;;;;;;;32.92;47.08;100457.03;5397119;32;33781;-83
2023/08/24 10:35:31;;;;;;;3.85;3.37;;;;;;;32.81;44.64;100452.09;5388886;33;34813;-83
2023/08/24 10:38:41;;;;;;;3.50;3.20;;;;;;;32.93;42.75;100441.09;5398293;33;34575;-84
2023/08/24 10:41:47;;;;;;;5.22;3.33;;;;;;;33.25;43.25;100437.03;5399067;33;33572;-83
2023/08/24 10:44:50;;;;;;;3.62;3.30;;;;;;;33.63;41.60;100428.00;5389064;33;33523;-84
2023/08/24 10:47:53;;;;;;;4.40;3.58;;;;;;;33.59;39.42;100424.22;5385353;33;34926;-83
2023/08/24 10:51:21;;;;;;;5.32;3.17;;;;;;;33.57;38.98;100426.53;5401115;32;34021;-83
2023/08/24 10:54:31;;;;;;;5.12;3.50;;;;;;;33.45;38.28;100429.16;5395522;33;33529;-82
2023/08/24 10:57:41;;;;;;;4.68;3.33;;;;;;;33.37;39.49;100428.81;5397581;33;33482;-86
2023/08/24 11:00:49;;;;;;;4.20;3.30;;;;;;;33.57;38.65;100432.12;5397670;33;34284;-83
2023/08/24 11:03:56;;;;;;;3.55;3.15;;;;;;;33.51;38.22;100431.47;5396894;33;34706;-83
2023/08/24 11:07:02;;;;;;;4.00;3.60;;;;;;;34.08;37.73;100428.38;5372966;33;33488;-83
2023/08/24 11:10:12;;;;;;;5.78;3.28;;;;;;;34.66;36.28;100423.19;5384518;33;32634;-83
2023/08/24 11:13:19;;;;;;;5.50;3.95;;;;;;;35.60;36.43;100424.69;5397731;33;33505;-82
2023/08/24 11:16:43;;;;;;;3.58;3.28;;;;;;;36.29;35.68;100428.69;5398919;32;33375;-84
2023/08/24 11:19:54;;;;;;;3.83;3.30;;;;;;;36.32;34.18;100426.00;5383945;33;33197;-84
2023/08/24 11:22:57;;;;;;;7.90;3.62;;;;;;;36.46;31.83;100425.66;5372023;33;33525;-84
2023/08/24 11:26:01;;;;;;;3.78;3.33;;;;;;;36.58;32.23;100424.84;5382796;33;33941;-84
2023/08/24 11:29:07;;;;;;;3.40;3.10;;;;;;;37.00;30.16;100418.94;5397506;33;34468;-83
2023/08/24 11:32:10;;;;;;;4.15;3.28;;;;;;;37.78;29.43;100417.53;5360846;33;33377;-81
2023/08/24 11:35:14;;;;;;;7.45;3.33;;;;;;;37.38;30.05;100417.59;5384598;33;33645;-82
2023/08/24 11:38:16;;;;;;;3.95;2.92;;;;;;;37.39;29.12;100413.66;5383825;32;34087;-82
2023/08/24 11:41:21;;;;;;;3.60;3.30;;;;;;;38.24;27.90;100403.88;5372154;33;34819;-81
2023/08/24 11:44:24;;;;;;;6.18;3.55;;;;;;;38.75;28.30;100397.41;5397676;33;33683;-82
2023/08/24 11:47:31;;;;;;;6.18;3.40;;;;;;;40.46;24.91;100399.06;5389129;33;33818;-82
2023/08/24 11:50:34;;;;;;;4.28;2.95;;;;;;;41.89;23.65;100398.00;5384670;33;33585;-82
2023/08/24 11:53:41;;;;;;;4.65;2.83;;;;;;;41.68;23.90;100399.41;5362132;33;33054;-82
2023/08/24 11:56:46;;;;;;;4.95;2.80;;;;;;;42.56;22.69;100399.69;5392043;33;34042;-82
2023/08/24 11:59:50;;;;;;;4.37;3.28;;;;;;;42.67;22.33;100394.09;5379351;33;33424;-82
2023/08/24 12:02:53;;;;;;;5.00;2.87;;;;;;;43.80;20.96;100398.56;5370512;33;33141;-82
2023/08/24 12:06:01;;;;;;;3.97;2.72;;;;;;;43.39;22.04;100393.22;5371799;33;34498;-81
2023/08/24 12:09:07;;;;;;;3.72;3.15;;;;;;;43.45;21.13;100394.44;5352858;33;33578;-82
2023/08/24 12:12:18;;;;;;;4.00;3.00;;;;;;;44.77;20.76;100381.44;5377978;33;33225;-81
2023/08/24 12:15:21;;;;;;;4.30;3.10;;;;;;;44.83;19.98;100390.34;5379690;33;33090;-86
2023/08/24 12:18:24;;;;;;;2.75;2.45;;;;;;;44.56;20.52;100387.97;5366994;33;33387;-86
2023/08/24 12:21:29;;;;;;;2.90;2.70;;;;;;;44.69;19.67;100382.66;5367176;33;33190;-83
2023/08/24 12:24:32;;;;;;;2.75;2.45;;;;;;;44.93;19.27;100380.97;5366981;33;33643;-82
2023/08/24 12:27:35;;;;;;;3.30;2.40;;;;;;;44.71;19.12;100375.34;5380392;33;33530;-82
2023/08/24 12:30:52;;;;;;;3.00;2.70;;;;;;;45.83;18.10;100369.84;5367974;33;33303;-82
2023/08/24 12:34:14;;;;;;;5.35;2.60;;;;;;;45.64;19.31;100360.66;5380774;33;33595;-82
2023/08/24 12:37:18;;;;;;;3.12;2.83;;;;;;;46.70;18.14;100353.56;5369092;33;33972;-82
2023/08/24 12:40:22;;;;;;;3.87;2.40;;;;;;;45.79;17.50;100367.06;5371005;33;33599;-81
2023/08/24 12:43:26;;;;;;;2.75;2.42;;;;;;;45.95;17.45;100360.81;5367457;33;33263;-82
2023/08/24 12:46:29;;;;;;;4.57;2.50;;;;;;;46.76;17.10;100358.34;5366232;33;33528;-82
2023/08/24 12:49:31;;;;;;;2.72;2.53;;;;;;;47.16;16.95;100352.16;5366620;33;34319;-82
2023/08/24 12:52:34;;;;;;;2.80;2.50;;;;;;;46.11;17.36;100341.16;5354466;33;34642;-82
2023/08/24 12:55:42;;;;;;;2.20;2.05;;;;;;;47.55;16.99;100328.75;5354385;33;33217;-82
2023/08/24 12:58:44;;;;;;;4.20;2.70;;;;;;;48.71;15.34;100337.62;5366049;33;33469;-82
2023/08/24 13:01:47;;;;;;;2.55;2.35;;;;;;;47.76;15.73;100333.25;5366193;33;33549;-82
2023/08/24 13:04:50;;;;;;;2.90;2.40;;;;;;;48.91;15.79;100331.91;5354356;33;33538;-82
2023/08/24 13:07:54;;;;;;;3.55;2.22;;;;;;;49.37;15.65;100327.16;5379458;33;33544;-82
2023/08/24 13:10:57;;;;;;;3.00;2.30;;;;;;;49.35;15.06;100328.84;5366484;33;33226;-82
2023/08/24 13:14:00;;;;;;;2.80;2.60;;;;;;;49.35;15.00;100328.84;5366180;33;34429;-82
2023/08/24 13:17:03;;;;;;;3.00;2.55;;;;;;;49.64;14.75;100318.34;5366005;33;34558;-82
2023/08/24 13:20:07;;;;;;;3.30;2.47;;;;;;;47.63;16.33;100312.31;5369703;33;33477;-82
2023/08/24 13:23:10;;;;;;;4.03;2.42;;;;;;;48.19;16.38;100309.69;5383037;33;33513;-82
2023/08/24 13:26:21;;;;;;;2.92;2.50;;;;;;;49.68;14.97;100307.59;5364731;33;33228;-82
2023/08/24 13:29:24;;;;;;;3.90;2.37;;;;;;;49.22;15.63;100308.72;5392369;33;33283;-82
2023/08/24 13:32:27;;;;;;;2.72;2.05;;;;;;;48.86;15.46;100303.84;5371972;33;34488;-82
2023/08/24 13:35:30;;;;;;;4.97;2.28;;;;;;;48.61;15.50;100303.56;5397293;33;34841;-82
2023/08/24 13:38:33;;;;;;;2.55;2.33;;;;;;;48.99;15.18;100309.66;5401487;33;35088;-82
2023/08/24 13:41:35;;;;;;;3.00;2.30;;;;;;;47.19;16.17;100299.97;5397414;33;34379;-82
2023/08/24 13:44:38;;;;;;;2.83;2.15;;;;;;;47.83;15.59;100296.09;5383649;33;33531;-82
2023/08/24 13:47:41;;;;;;;3.50;2.30;;;;;;;47.39;15.94;100294.34;5383722;33;33921;-82
2023/08/24 13:50:52;;;;;;;2.78;2.42;;;;;;;46.94;16.42;100289.72;5396902;33;33470;-82
2023/08/24 13:53:55;;;;;;;3.03;2.47;;;;;;;47.38;16.42;100287.03;5371367;33;34361;-86
2023/08/24 13:57:00;;;;;;;4.40;2.70;;;;;;;46.87;16.63;100284.13;5371384;33;33716;-85
2023/08/24 14:00:04;;;;;;;4.25;2.53;;;;;;;46.98;17.62;100287.63;5371743;33;34012;-86
2023/08/24 14:03:13;;;;;;;4.18;2.35;;;;;;;46.38;16.01;100283.53;5397106;33;34244;-82
2023/08/24 14:06:16;;;;;;;4.65;2.40;;;;;;;44.71;17.64;100289.34;5379243;33;154673;-83
2023/08/24 14:09:19;;;;;;;2.97;2.60;;;;;;;44.11;18.74;100280.63;5360118;33;33197;-83
2023/08/24 14:12:22;;;;;;;2.58;2.35;;;;;;;41.33;21.13;100281.13;5384340;33;33298;-82
2023/08/24 14:15:25;;;;;;;3.55;2.45;;;;;;;40.07;22.24;100280.75;5385548;33;33594;-80
2023/08/24 14:18:28;;;;;;;4.53;2.67;;;;;;;38.43;24.33;100282.16;5385133;33;33331;-82
2023/08/24 14:21:31;;;;;;;4.00;2.78;;;;;;;37.86;25.45;100272.41;5398374;33;34331;-81
2023/08/24 14:24:37;;;;;;;2.80;2.55;;;;;;;36.98;25.59;100270.50;5398829;33;35354;-82
2023/08/24 14:27:41;;;;;;;5.55;2.80;;;;;;;36.26;27.03;100273.22;5374104;33;33510;-81
2023/08/24 14:30:52;;;;;;;3.33;2.90;;;;;;;35.92;28.62;100268.94;5390238;33;33624;-81
2023/08/24 14:33:56;;;;;;;3.80;3.40;;;;;;;35.73;28.48;100280.72;5386932;33;34309;-81
2023/08/24 14:36:59;;;;;;;5.53;2.72;;;;;;;35.08;29.35;100266.50;5399750;33;33346;-82
2023/08/24 14:40:03;;;;;;;3.20;2.90;;;;;;;34.67;31.37;100273.78;5362983;33;34267;-81
2023/08/24 14:43:06;;;;;;;3.33;3.03;;;;;;;34.46;31.08;100270.16;5388719;33;33731;-82
2023/08/24 14:46:09;;;;;;;3.45;2.72;;;;;;;34.22;31.09;100265.22;5376590;33;33723;-82
2023/08/24 14:49:18;;;;;;;4.00;3.20;;;;;;;34.07;32.42;100270.25;5388922;33;33473;-82
2023/08/24 14:52:21;;;;;;;3.37;3.03;;;;;;;33.94;31.71;100274.09;5401145;33;33653;-82
2023/08/24 14:55:24;;;;;;;3.53;2.67;;;;;;;33.74;31.48;100255.34;5392104;33;33346;-82
2023/08/24 14:58:27;;;;;;;5.50;2.97;;;;;;;33.63;31.68;100266.88;5377483;33;33713;-83
2023/08/24 15:01:30;;;;;;;3.47;3.10;;;;;;;33.43;32.20;100259.22;5397002;33;33620;-83
2023/08/24 15:04:33;;;;;;;4.30;3.70;;;;;;;33.25;33.95;100260.44;5396893;33;34134;-83
2023/08/24 15:19:09;;;;;;;4.10;3.37;;;;;;;32.20;34.12;100277.19;5577638;31;131918;-82
2023/08/24 15:22:12;;;;;;;4.20;3.17;;;;;;;32.12;34.06;100266.88;5568136;32;34127;-82
2023/08/24 15:25:15;;;;;;;3.95;2.90;;;;;;;32.06;33.91;100262.59;5581115;32;33690;-82
2023/08/24 15:28:18;;;;;;;4.65;3.30;;;;;;;31.88;33.79;100260.87;5581958;32;33614;-82
2023/08/24 15:31:20;;;;;;;5.03;3.15;;;;;;;31.74;34.86;100269.38;5568267;31;33489;-84
2023/08/24 15:34:23;;;;;;;5.07;3.00;;;;;;;31.70;34.85;100268.38;5580696;31;34377;-84
2023/08/24 15:37:26;;;;;;;3.10;2.80;;;;;;;31.62;34.77;100268.03;5581032;32;34307;-84
2023/08/24 15:40:31;;;;;;;5.32;3.53;;;;;;;31.52;35.18;100262.72;5581974;31;34272;-84
2023/08/24 15:43:34;;;;;;;3.05;2.72;;;;;;;31.34;35.83;100267.37;5581986;31;33545;-84
2023/08/24 15:46:37;;;;;;;4.47;3.33;;;;;;;31.23;36.45;100260.44;5567739;31;33640;-84
2023/08/24 15:49:40;;;;;;;4.47;3.17;;;;;;;31.18;36.05;100252.22;5581018;31;33593;-84
2023/08/24 15:52:43;;;;;;;3.92;3.17;;;;;;;31.14;36.54;100254.81;5567918;32;34143;-84
2023/08/24 15:55:45;;;;;;;5.65;3.70;;;;;;;31.01;36.98;100255.75;5580665;31;33368;-84
2023/08/24 15:58:49;;;;;;;5.05;2.92;;;;;;;30.88;37.18;100246.31;5567430;32;34405;-84
